Time;durP1;ratioP1;P1;durP2;ratioP2;P2;SDS_P1;SDS_P2;PMS_P1;PMS_P2;Temp;Humidity;BMP_temperature;BMP_pressure;BME280_temperature;BME280_humidity;BME280_pressure;Samples;Min_cycle;Max_cycle;Signal;HPM_P1;HPM_P2
2022/09/15 00:02:18;;;;;;;4.45;3.45;;;;;;;;;;4985901;28;20291;-62
2022/09/15 00:04:45;;;;;;;7.82;3.30;;;;;;;;;;4985790;28;20234;-62
2022/09/15 00:07:11;;;;;;;4.18;2.90;;;;;;;;;;4976674;28;20308;-63
2022/09/15 00:09:38;;;;;;;4.40;3.50;;;;;;;;;;4984286;28;20205;-62
2022/09/15 00:12:04;;;;;;;4.50;3.50;;;;;;;;;;4969464;28;20292;-60
2022/09/15 00:14:30;;;;;;;4.82;3.55;;;;;;;;;;4986309;28;20284;-62
2022/09/15 00:16:57;;;;;;;2.70;1.95;;;;;;;;;;4985790;28;20344;-63
2022/09/15 00:19:23;;;;;;;3.78;2.45;;;;;;;;;;4986156;28;20223;-62
2022/09/15 00:21:49;;;;;;;6.07;2.65;;;;;;;;;;4985516;28;20295;-62
2022/09/15 00:24:16;;;;;;;4.55;2.40;;;;;;;;;;4974604;28;20207;-62
2022/09/15 00:26:43;;;;;;;4.25;2.78;;;;;;;;;;4987101;28;20217;-62
2022/09/15 00:29:09;;;;;;;4.22;2.67;;;;;;;;;;4982153;28;20678;-62
2022/09/15 00:31:35;;;;;;;5.45;2.78;;;;;;;;;;4983841;28;20581;-61
2022/09/15 00:34:02;;;;;;;2.55;2.35;;;;;;;;;;4979059;28;20201;-62
2022/09/15 00:36:29;;;;;;;4.90;2.58;;;;;;;;;;4990439;28;20307;-62
2022/09/15 00:38:56;;;;;;;3.90;2.50;;;;;;;;;;4990380;28;20296;-62
2022/09/15 00:41:23;;;;;;;4.97;2.38;;;;;;;;;;4972152;28;20280;-62
2022/09/15 00:44:02;;;;;;;3.03;2.20;;;;;;;;;;4986102;28;20672;-62
2022/09/15 00:46:36;;;;;;;2.95;2.28;;;;;;;;;;4990115;28;20275;-62
2022/09/15 00:49:18;;;;;;;2.85;2.17;;;;;;;;;;4968375;28;20287;-62
2022/09/15 00:52:11;;;;;;;3.65;2.20;;;;;;;;;;4963243;28;20834;-63
2022/09/15 00:54:51;;;;;;;4.57;2.00;;;;;;;;;;4960184;28;20205;-61
2022/09/15 00:57:29;;;;;;;3.47;2.13;;;;;;;;;;4981849;28;20307;-61
2022/09/15 00:59:56;;;;;;;2.30;1.80;;;;;;;;;;4985672;28;20215;-62
2022/09/15 01:02:29;;;;;;;3.03;1.80;;;;;;;;;;4989031;28;20296;-62
2022/09/15 01:04:58;;;;;;;3.95;1.85;;;;;;;;;;4971087;28;20296;-60
2022/09/15 01:07:45;;;;;;;2.53;2.05;;;;;;;;;;4965080;28;20304;-62
2022/09/15 01:10:16;;;;;;;2.75;1.70;;;;;;;;;;4970121;28;20744;-62
2022/09/15 01:12:42;;;;;;;3.80;2.00;;;;;;;;;;4963878;28;20283;-62
2022/09/15 01:15:08;;;;;;;3.20;1.85;;;;;;;;;;4970659;28;20228;-63
2022/09/15 01:17:53;;;;;;;3.45;1.65;;;;;;;;;;4984238;28;20316;-62
2022/09/15 01:21:09;;;;;;;2.83;1.73;;;;;;;;;;4983982;28;20231;-61
2022/09/15 01:24:01;;;;;;;2.58;2.00;;;;;;;;;;4969800;28;20630;-59
2022/09/15 01:26:42;;;;;;;2.83;1.67;;;;;;;;;;4971070;28;20300;-63
2022/09/15 01:29:27;;;;;;;2.25;1.77;;;;;;;;;;4987308;28;20287;-62
2022/09/15 01:35:39;;;;;;;3.70;1.80;;;;;;;;;;4977981;28;20283;-62
2022/09/15 01:38:10;;;;;;;2.65;2.10;;;;;;;;;;4929375;29;20329;-62
2022/09/15 01:40:51;;;;;;;4.55;2.08;;;;;;;;;;4978169;28;20201;-63
2022/09/15 01:43:20;;;;;;;4.35;1.83;;;;;;;;;;4979297;28;20760;-63
2022/09/15 01:45:48;;;;;;;3.22;1.98;;;;;;;;;;4964357;28;20662;-63
2022/09/15 01:48:15;;;;;;;2.65;1.70;;;;;;;;;;4961389;28;20221;-62
2022/09/15 01:50:46;;;;;;;2.25;1.52;;;;;;;;;;4964439;28;20299;-63
2022/09/15 01:53:15;;;;;;;1.70;1.42;;;;;;;;;;4977084;28;20280;-63
2022/09/15 01:56:00;;;;;;;4.07;1.42;;;;;;;;;;4964548;28;20206;-63
2022/09/15 01:58:26;;;;;;;3.45;1.80;;;;;;;;;;4981089;28;20300;-62
2022/09/15 02:00:57;;;;;;;2.67;1.60;;;;;;;;;;4984409;28;20642;-63
2022/09/15 02:03:36;;;;;;;1.67;1.42;;;;;;;;;;4987028;28;20197;-63
2022/09/15 02:06:07;;;;;;;2.97;1.60;;;;;;;;;;4985289;28;20768;-63
2022/09/15 02:08:43;;;;;;;1.75;1.30;;;;;;;;;;4971626;28;20696;-62
2022/09/15 02:11:16;;;;;;;2.40;1.30;;;;;;;;;;4966635;28;20221;-61
2022/09/15 02:13:54;;;;;;;2.65;1.27;;;;;;;;;;4978269;28;20577;-62
2022/09/15 02:16:22;;;;;;;1.52;1.20;;;;;;;;;;4963091;28;20799;-63
2022/09/15 02:19:01;;;;;;;1.15;0.90;;;;;;;;;;4971239;28;20213;-63
2022/09/15 02:21:33;;;;;;;1.35;0.93;;;;;;;;;;4984295;28;20203;-62
2022/09/15 02:24:04;;;;;;;1.52;1.00;;;;;;;;;;4975907;28;20193;-62
2022/09/15 02:26:32;;;;;;;1.17;0.82;;;;;;;;;;4966247;28;20775;-62
2022/09/15 02:29:03;;;;;;;1.38;1.05;;;;;;;;;;4982191;28;20228;-62
2022/09/15 02:31:31;;;;;;;1.17;0.95;;;;;;;;;;4979210;28;20284;-61
2022/09/15 02:34:02;;;;;;;1.85;1.08;;;;;;;;;;4963293;28;20199;-63
2022/09/15 02:36:29;;;;;;;2.38;0.90;;;;;;;;;;4968034;28;20921;-62
2022/09/15 02:39:01;;;;;;;0.93;0.75;;;;;;;;;;4983930;28;20205;-63
2022/09/15 02:41:27;;;;;;;1.00;0.80;;;;;;;;;;4961780;28;20747;-63
2022/09/15 02:43:53;;;;;;;1.08;0.90;;;;;;;;;;4961377;28;20858;-63
2022/09/15 02:46:21;;;;;;;1.10;0.70;;;;;;;;;;4983629;28;20196;-63
2022/09/15 02:48:47;;;;;;;0.70;0.65;;;;;;;;;;4969401;28;20369;-62
2022/09/15 02:51:15;;;;;;;2.38;0.70;;;;;;;;;;4976166;28;20229;-60
2022/09/15 02:53:43;;;;;;;0.88;0.60;;;;;;;;;;4982056;28;20292;-63
2022/09/15 02:56:09;;;;;;;0.88;0.70;;;;;;;;;;4984686;28;20661;-60
2022/09/15 02:58:36;;;;;;;0.80;0.70;;;;;;;;;;4986322;28;20304;-62
2022/09/15 03:01:03;;;;;;;0.70;0.70;;;;;;;;;;4979208;28;20223;-62
2022/09/15 03:03:31;;;;;;;0.68;0.68;;;;;;;;;;4988837;28;20626;-62
2022/09/15 03:06:15;;;;;;;1.83;0.90;;;;;;;;;;4986832;28;20288;-63
2022/09/15 03:09:05;;;;;;;1.10;0.98;;;;;;;;;;4986630;28;20299;-62
2022/09/15 03:11:32;;;;;;;1.35;1.25;;;;;;;;;;4983227;28;20647;-62
2022/09/15 03:14:04;;;;;;;1.73;1.55;;;;;;;;;;4980307;28;20283;-62
2022/09/15 03:16:31;;;;;;;1.73;1.55;;;;;;;;;;4982089;28;20760;-62
2022/09/15 03:18:59;;;;;;;2.45;1.85;;;;;;;;;;4987650;28;20209;-62
2022/09/15 03:21:28;;;;;;;2.20;1.90;;;;;;;;;;4984459;28;20771;-62
2022/09/15 03:23:55;;;;;;;3.75;2.60;;;;;;;;;;4973209;28;20206;-62
2022/09/15 03:26:21;;;;;;;3.85;3.13;;;;;;;;;;4971771;28;20283;-62
2022/09/15 03:28:48;;;;;;;3.35;2.65;;;;;;;;;;4986409;28;20207;-62
2022/09/15 03:31:15;;;;;;;5.32;4.03;;;;;;;;;;4986224;28;20287;-62
2022/09/15 03:33:41;;;;;;;4.07;2.92;;;;;;;;;;4987332;28;20587;-62
2022/09/15 03:36:08;;;;;;;6.80;4.57;;;;;;;;;;4980421;28;20201;-63
2022/09/15 03:38:34;;;;;;;6.07;4.15;;;;;;;;;;4985848;28;20220;-63
2022/09/15 03:41:03;;;;;;;5.97;4.28;;;;;;;;;;4983278;28;20292;-62
2022/09/15 03:43:31;;;;;;;4.15;3.15;;;;;;;;;;4964778;28;20741;-63
2022/09/15 03:45:58;;;;;;;7.03;4.57;;;;;;;;;;4983074;28;20199;-63
2022/09/15 03:48:25;;;;;;;7.57;5.35;;;;;;;;;;4980760;28;20696;-63
2022/09/15 03:50:51;;;;;;;5.05;3.67;;;;;;;;;;4985165;28;20201;-61
2022/09/15 03:53:19;;;;;;;7.68;5.75;;;;;;;;;;4986021;28;20227;-62
2022/09/15 03:55:45;;;;;;;7.47;5.32;;;;;;;;;;4981614;28;20768;-63
2022/09/15 03:58:12;;;;;;;4.93;3.90;;;;;;;;;;4982434;28;20323;-63
2022/09/15 04:00:39;;;;;;;6.82;5.28;;;;;;;;;;4981940;28;20221;-62
2022/09/15 04:03:07;;;;;;;7.40;5.18;;;;;;;;;;4983587;28;20209;-63
2022/09/15 04:05:34;;;;;;;5.70;4.53;;;;;;;;;;4981214;28;20288;-62
2022/09/15 04:08:01;;;;;;;7.07;5.25;;;;;;;;;;4983610;28;20300;-63
2022/09/15 04:10:28;;;;;;;7.57;5.68;;;;;;;;;;4986332;28;20194;-63
2022/09/15 04:12:54;;;;;;;6.18;4.20;;;;;;;;;;4982058;28;20285;-62
2022/09/15 04:15:21;;;;;;;7.78;5.68;;;;;;;;;;4988407;28;20296;-62
2022/09/15 04:17:47;;;;;;;9.77;6.93;;;;;;;;;;4981919;28;20257;-59
2022/09/15 04:20:16;;;;;;;9.52;6.90;;;;;;;;;;4981374;28;20687;-62
2022/09/15 04:22:43;;;;;;;9.13;6.60;;;;;;;;;;4986959;28;20287;-63
2022/09/15 04:25:09;;;;;;;11.00;6.95;;;;;;;;;;4982296;28;20653;-63
2022/09/15 04:27:37;;;;;;;9.82;6.45;;;;;;;;;;4978884;28;20784;-62
2022/09/15 04:30:05;;;;;;;7.90;5.68;;;;;;;;;;4989444;28;20288;-62
2022/09/15 04:32:31;;;;;;;10.15;6.30;;;;;;;;;;4987517;28;20743;-62
2022/09/15 04:34:58;;;;;;;10.20;6.00;;;;;;;;;;4988987;28;20296;-62
2022/09/15 04:37:24;;;;;;;8.60;6.07;;;;;;;;;;4988038;28;20308;-62
2022/09/15 04:39:51;;;;;;;7.68;5.22;;;;;;;;;;4985331;28;20332;-62
2022/09/15 04:42:19;;;;;;;7.93;5.30;;;;;;;;;;4984474;28;20264;-62
2022/09/15 04:44:46;;;;;;;7.90;5.60;;;;;;;;;;4982664;28;20288;-62
2022/09/15 04:47:12;;;;;;;8.60;5.60;;;;;;;;;;4983172;28;20317;-61
2022/09/15 04:49:39;;;;;;;8.00;5.68;;;;;;;;;;4974630;28;20293;-62
2022/09/15 04:52:05;;;;;;;6.40;4.90;;;;;;;;;;4974637;28;20284;-62
2022/09/15 04:54:35;;;;;;;6.95;4.65;;;;;;;;;;4965184;28;20209;-62
2022/09/15 04:57:01;;;;;;;7.30;4.40;;;;;;;;;;4983616;28;20300;-62
2022/09/15 04:59:28;;;;;;;9.50;4.78;;;;;;;;;;4981378;28;20292;-62
2022/09/15 05:01:54;;;;;;;6.00;4.20;;;;;;;;;;4983354;28;20288;-62
2022/09/15 05:04:21;;;;;;;8.55;4.93;;;;;;;;;;4983142;28;20197;-62
2022/09/15 05:06:47;;;;;;;6.07;4.30;;;;;;;;;;4984171;28;20311;-62
2022/09/15 05:09:14;;;;;;;6.45;4.28;;;;;;;;;;4983192;28;20232;-62
2022/09/15 05:11:40;;;;;;;7.35;4.18;;;;;;;;;;4979661;28;20296;-62
2022/09/15 05:14:08;;;;;;;5.18;3.20;;;;;;;;;;4988069;28;20663;-63
2022/09/15 05:16:34;;;;;;;4.70;3.35;;;;;;;;;;4986046;28;20697;-62
2022/09/15 05:19:04;;;;;;;7.30;4.00;;;;;;;;;;4982720;28;20213;-62
2022/09/15 05:21:31;;;;;;;6.00;3.75;;;;;;;;;;4981196;28;20293;-62
2022/09/15 05:23:57;;;;;;;6.40;3.47;;;;;;;;;;4989140;28;20685;-61
2022/09/15 05:26:25;;;;;;;3.97;2.85;;;;;;;;;;4990143;28;20289;-62
2022/09/15 05:28:52;;;;;;;4.90;2.88;;;;;;;;;;4990840;28;20215;-62
2022/09/15 05:31:23;;;;;;;4.38;3.05;;;;;;;;;;4998902;28;20207;-60
2022/09/15 05:33:50;;;;;;;6.03;3.30;;;;;;;;;;4992149;28;20658;-57
2022/09/15 05:36:19;;;;;;;5.45;2.67;;;;;;;;;;4966788;28;20747;-59
2022/09/15 05:38:45;;;;;;;5.38;3.45;;;;;;;;;;4958653;28;20792;-59
2022/09/15 05:41:15;;;;;;;4.43;2.55;;;;;;;;;;4987453;28;20211;-59
2022/09/15 05:43:43;;;;;;;4.28;3.25;;;;;;;;;;4983989;28;20211;-59
2022/09/15 05:46:09;;;;;;;8.93;2.92;;;;;;;;;;4982451;28;20288;-57
2022/09/15 05:48:36;;;;;;;4.97;3.13;;;;;;;;;;4985221;28;20220;-57
2022/09/15 05:51:02;;;;;;;4.53;2.67;;;;;;;;;;4983842;28;20289;-59
2022/09/15 05:53:30;;;;;;;7.72;2.80;;;;;;;;;;4986555;28;20280;-59
2022/09/15 05:56:02;;;;;;;5.13;2.35;;;;;;;;;;4984875;28;20221;-57
2022/09/15 05:58:29;;;;;;;4.60;2.90;;;;;;;;;;4986156;28;20322;-57
2022/09/15 06:00:56;;;;;;;5.30;2.58;;;;;;;;;;4987700;28;20300;-56
2022/09/15 06:03:22;;;;;;;6.15;2.50;;;;;;;;;;4977638;28;20292;-62
2022/09/15 06:05:59;;;;;;;5.15;2.67;;;;;;;;;;4973265;28;20691;-62
2022/09/15 06:08:49;;;;;;;4.13;2.25;;;;;;;;;;4966369;28;20622;-63
2022/09/15 06:11:25;;;;;;;4.22;2.42;;;;;;;;;;4984223;28;20205;-62
2022/09/15 06:13:51;;;;;;;5.43;2.10;;;;;;;;;;4965560;28;20288;-62
2022/09/15 06:16:20;;;;;;;5.60;2.85;;;;;;;;;;4979504;28;20561;-60
2022/09/15 06:18:48;;;;;;;3.40;2.40;;;;;;;;;;4963052;28;20249;-62
2022/09/15 06:21:21;;;;;;;4.40;2.28;;;;;;;;;;4974636;28;20241;-62
2022/09/15 06:23:58;;;;;;;9.02;2.75;;;;;;;;;;4983692;28;20197;-60
2022/09/15 06:26:26;;;;;;;2.85;2.05;;;;;;;;;;4982211;28;20903;-62
2022/09/15 06:28:57;;;;;;;3.80;2.40;;;;;;;;;;4962038;28;20316;-63
2022/09/15 06:31:25;;;;;;;5.22;2.70;;;;;;;;;;4981558;28;20480;-62
2022/09/15 06:33:54;;;;;;;3.95;2.17;;;;;;;;;;4982250;28;20212;-61
2022/09/15 06:36:23;;;;;;;2.70;1.80;;;;;;;;;;4985483;28;20288;-60
2022/09/15 06:38:50;;;;;;;5.82;2.10;;;;;;;;;;4978842;28;20614;-62
2022/09/15 06:41:16;;;;;;;3.17;2.42;;;;;;;;;;4976892;28;20293;-62
2022/09/15 06:43:43;;;;;;;2.65;1.95;;;;;;;;;;4983197;28;20303;-62
2022/09/15 06:46:12;;;;;;;3.50;1.90;;;;;;;;;;4980506;28;20205;-62
2022/09/15 06:48:39;;;;;;;2.45;1.83;;;;;;;;;;4975322;28;20201;-62
2022/09/15 06:51:07;;;;;;;2.40;1.60;;;;;;;;;;4984288;28;20201;-59
2022/09/15 06:53:36;;;;;;;4.22;2.08;;;;;;;;;;4983266;28;20240;-61
2022/09/15 06:56:11;;;;;;;3.50;2.05;;;;;;;;;;4981550;28;20217;-60
2022/09/15 06:58:39;;;;;;;5.78;2.45;;;;;;;;;;4984305;28;20707;-60
2022/09/15 07:01:27;;;;;;;2.90;2.00;;;;;;;;;;4985926;28;20193;-59
2022/09/15 07:03:54;;;;;;;2.38;1.90;;;;;;;;;;4985149;28;20343;-60
2022/09/15 07:06:20;;;;;;;3.58;1.92;;;;;;;;;;4977790;28;20297;-58
2022/09/15 07:08:48;;;;;;;4.10;2.30;;;;;;;;;;4983266;28;20205;-60
2022/09/15 07:11:16;;;;;;;2.65;1.65;;;;;;;;;;4983203;28;21776;-60
2022/09/15 07:13:42;;;;;;;2.83;1.90;;;;;;;;;;4984164;28;20224;-60
2022/09/15 07:16:10;;;;;;;3.15;1.92;;;;;;;;;;4977711;28;20281;-60
2022/09/15 07:18:37;;;;;;;3.75;2.35;;;;;;;;;;4983587;28;20718;-61
2022/09/15 07:21:11;;;;;;;4.45;2.03;;;;;;;;;;4985061;28;20576;-60
2022/09/15 07:23:38;;;;;;;3.90;2.10;;;;;;;;;;4984244;28;20212;-60
2022/09/15 07:26:12;;;;;;;4.53;2.20;;;;;;;;;;4977804;28;20205;-59
2022/09/15 07:28:41;;;;;;;2.22;1.55;;;;;;;;;;4965998;28;20288;-64
2022/09/15 07:31:09;;;;;;;5.13;1.60;;;;;;;;;;4969840;28;20203;-55
2022/09/15 07:33:35;;;;;;;4.78;2.33;;;;;;;;;;4974110;28;20461;-60
2022/09/15 07:36:06;;;;;;;2.88;2.22;;;;;;;;;;4984694;28;20765;-59
2022/09/15 07:38:33;;;;;;;4.85;1.98;;;;;;;;;;4988072;28;20217;-57
2022/09/15 07:41:04;;;;;;;3.38;2.30;;;;;;;;;;4980469;28;20193;-57
2022/09/15 07:43:31;;;;;;;5.60;2.75;;;;;;;;;;4975723;28;20236;-60
2022/09/15 07:45:58;;;;;;;4.63;2.30;;;;;;;;;;4983028;28;20289;-59
2022/09/15 07:48:24;;;;;;;4.07;2.20;;;;;;;;;;4986211;28;20221;-61
2022/09/15 07:50:52;;;;;;;3.30;2.58;;;;;;;;;;4986877;28;20205;-62
2022/09/15 07:53:18;;;;;;;4.65;2.70;;;;;;;;;;4984108;28;20248;-62
2022/09/15 07:55:44;;;;;;;4.55;2.30;;;;;;;;;;5000357;28;20216;-60
2022/09/15 07:58:11;;;;;;;5.68;2.65;;;;;;;;;;4985800;28;20213;-63
2022/09/15 08:00:37;;;;;;;3.00;2.20;;;;;;;;;;4996547;28;20202;-60
2022/09/15 08:03:04;;;;;;;6.22;2.80;;;;;;;;;;4989787;28;20562;-59
2022/09/15 08:05:31;;;;;;;3.22;2.42;;;;;;;;;;4990657;28;20272;-61
2022/09/15 08:08:04;;;;;;;5.47;2.90;;;;;;;;;;4988458;28;20212;-60
2022/09/15 08:10:31;;;;;;;2.83;2.17;;;;;;;;;;4990544;28;20451;-60
2022/09/15 08:12:58;;;;;;;3.15;2.28;;;;;;;;;;4985885;28;20284;-60
2022/09/15 08:15:25;;;;;;;5.57;3.08;;;;;;;;;;4985012;28;20208;-57
2022/09/15 08:17:51;;;;;;;4.05;2.50;;;;;;;;;;4989930;28;20232;-61
2022/09/15 08:20:18;;;;;;;5.30;3.35;;;;;;;;;;4987008;28;20220;-58
2022/09/15 08:22:45;;;;;;;2.83;2.13;;;;;;;;;;4990470;28;20224;-57
2022/09/15 08:25:11;;;;;;;4.05;2.80;;;;;;;;;;4988668;28;20287;-55
2022/09/15 08:27:38;;;;;;;3.03;2.30;;;;;;;;;;4984401;28;20220;-56
2022/09/15 08:30:05;;;;;;;4.30;2.58;;;;;;;;;;4986019;28;20235;-56
2022/09/15 08:32:32;;;;;;;4.00;2.25;;;;;;;;;;4985161;28;20662;-56
2022/09/15 08:34:58;;;;;;;5.30;3.20;;;;;;;;;;4983243;28;20229;-55
2022/09/15 08:37:25;;;;;;;8.23;3.97;;;;;;;;;;4977871;28;20213;-55
2022/09/15 08:39:51;;;;;;;5.32;2.80;;;;;;;;;;4980290;28;20308;-55
2022/09/15 08:42:19;;;;;;;4.90;2.88;;;;;;;;;;4983041;28;20288;-57
2022/09/15 08:44:59;;;;;;;5.90;3.80;;;;;;;;;;4963591;28;20288;-58
2022/09/15 08:47:33;;;;;;;4.43;3.03;;;;;;;;;;4969197;28;20235;-56
2022/09/15 08:50:34;;;;;;;5.45;3.08;;;;;;;;;;4965685;28;20280;-57
2022/09/15 08:53:13;;;;;;;4.80;2.58;;;;;;;;;;4982688;28;20227;-57
2022/09/15 08:55:51;;;;;;;3.88;3.20;;;;;;;;;;4981499;28;20209;-59
2022/09/15 08:58:36;;;;;;;6.72;3.58;;;;;;;;;;4976816;28;20229;-56
2022/09/15 09:01:29;;;;;;;6.10;3.13;;;;;;;;;;4963869;28;20276;-57
2022/09/15 09:04:17;;;;;;;3.65;2.45;;;;;;;;;;4961672;28;20212;-57
2022/09/15 09:07:03;;;;;;;3.47;2.63;;;;;;;;;;4963774;28;20292;-57
2022/09/15 09:09:52;;;;;;;4.85;2.83;;;;;;;;;;4956411;28;20189;-57
2022/09/15 09:12:40;;;;;;;4.15;3.10;;;;;;;;;;4958416;28;20288;-58
2022/09/15 09:15:39;;;;;;;2.83;2.50;;;;;;;;;;4968689;28;20324;-57
2022/09/15 09:18:12;;;;;;;5.68;3.20;;;;;;;;;;4962697;28;22293;-55
2022/09/15 09:20:59;;;;;;;4.47;2.80;;;;;;;;;;4963045;28;20202;-56
2022/09/15 09:23:27;;;;;;;6.10;3.10;;;;;;;;;;4982363;28;20268;-57
2022/09/15 09:25:55;;;;;;;4.43;3.38;;;;;;;;;;4970277;28;20210;-58
2022/09/15 09:28:28;;;;;;;4.55;3.22;;;;;;;;;;4993407;28;20304;-56
2022/09/15 09:30:59;;;;;;;4.75;3.38;;;;;;;;;;4991280;28;20228;-56
2022/09/15 09:33:30;;;;;;;3.50;3.08;;;;;;;;;;4967480;28;20207;-56
2022/09/15 09:35:58;;;;;;;3.92;3.15;;;;;;;;;;4971701;28;20289;-57
2022/09/15 09:38:29;;;;;;;6.13;4.38;;;;;;;;;;4970109;28;20235;-55
2022/09/15 09:40:55;;;;;;;4.53;3.58;;;;;;;;;;4966852;28;20295;-54
2022/09/15 09:43:28;;;;;;;5.10;3.90;;;;;;;;;;4980703;28;20628;-55
2022/09/15 09:45:55;;;;;;;5.70;4.07;;;;;;;;;;4965936;28;20197;-57
2022/09/15 09:48:23;;;;;;;5.18;3.75;;;;;;;;;;4980820;28;20209;-55
2022/09/15 09:50:50;;;;;;;6.40;4.20;;;;;;;;;;4987144;28;20539;-56
2022/09/15 09:53:32;;;;;;;6.28;4.50;;;;;;;;;;4963659;28;20225;-56
2022/09/15 09:56:11;;;;;;;5.45;3.80;;;;;;;;;;4976712;28;20287;-55
2022/09/15 09:58:37;;;;;;;5.63;3.83;;;;;;;;;;4982333;28;20244;-57
2022/09/15 10:01:12;;;;;;;5.72;4.35;;;;;;;;;;4963076;28;20201;-57
2022/09/15 10:03:40;;;;;;;5.80;4.05;;;;;;;;;;4980878;28;20597;-55
2022/09/15 10:06:20;;;;;;;4.82;4.07;;;;;;;;;;4978433;28;20653;-56
2022/09/15 10:08:58;;;;;;;6.90;4.40;;;;;;;;;;4982420;28;20287;-56
2022/09/15 10:12:00;;;;;;;5.43;4.43;;;;;;;;;;4969725;28;20304;-54
2022/09/15 10:14:34;;;;;;;5.53;3.97;;;;;;;;;;4898175;29;20405;-56
2022/09/15 10:17:14;;;;;;;6.05;4.40;;;;;;;;;;4969051;28;20652;-53
2022/09/15 10:19:52;;;;;;;6.00;4.10;;;;;;;;;;4977383;28;20223;-55
2022/09/15 10:22:25;;;;;;;5.63;4.47;;;;;;;;;;4964967;28;20220;-57
2022/09/15 10:24:52;;;;;;;6.68;4.53;;;;;;;;;;4977078;28;20197;-56
2022/09/15 10:27:18;;;;;;;6.95;4.85;;;;;;;;;;4958128;28;20315;-56
2022/09/15 10:29:45;;;;;;;5.20;3.95;;;;;;;;;;4982683;28;20295;-56
2022/09/15 10:32:22;;;;;;;6.32;5.03;;;;;;;;;;4974707;28;20221;-55
2022/09/15 10:35:05;;;;;;;7.18;4.63;;;;;;;;;;4979139;28;20227;-54
2022/09/15 10:37:44;;;;;;;5.72;5.00;;;;;;;;;;4982623;28;20308;-56
2022/09/15 10:40:29;;;;;;;6.50;4.78;;;;;;;;;;4980226;28;20541;-55
2022/09/15 10:42:59;;;;;;;7.60;4.97;;;;;;;;;;4960662;28;20204;-57
2022/09/15 10:45:32;;;;;;;6.28;4.75;;;;;;;;;;4983146;28;20291;-57
2022/09/15 10:48:24;;;;;;;9.10;5.15;;;;;;;;;;4957784;28;20235;-56
2022/09/15 10:50:53;;;;;;;6.07;4.68;;;;;;;;;;4977575;28;20292;-56
2022/09/15 10:53:50;;;;;;;5.90;4.50;;;;;;;;;;4977543;28;20340;-57
2022/09/15 10:56:31;;;;;;;5.40;4.70;;;;;;;;;;4976477;28;20193;-57
2022/09/15 10:59:22;;;;;;;5.15;4.57;;;;;;;;;;4978450;28;20223;-56
2022/09/15 11:01:56;;;;;;;5.32;3.78;;;;;;;;;;4977680;28;20307;-57
2022/09/15 11:04:37;;;;;;;6.18;4.55;;;;;;;;;;4978967;28;20783;-55
2022/09/15 11:07:12;;;;;;;5.22;4.35;;;;;;;;;;4975297;28;20667;-56
2022/09/15 11:09:50;;;;;;;5.78;4.35;;;;;;;;;;4974645;28;20227;-56
2022/09/15 11:12:30;;;;;;;5.15;4.20;;;;;;;;;;4977964;28;20296;-56
2022/09/15 11:15:18;;;;;;;5.40;4.53;;;;;;;;;;4964673;28;20291;-54
2022/09/15 11:17:55;;;;;;;5.85;4.30;;;;;;;;;;4980121;28;20315;-57
2022/09/15 11:20:36;;;;;;;6.10;4.35;;;;;;;;;;4960736;28;20222;-57
2022/09/15 11:23:33;;;;;;;5.03;4.10;;;;;;;;;;4978380;28;20652;-58
2022/09/15 11:26:06;;;;;;;5.05;4.15;;;;;;;;;;4941171;28;20741;-56
2022/09/15 11:28:37;;;;;;;5.55;4.35;;;;;;;;;;4979976;28;20975;-57
2022/09/15 11:31:29;;;;;;;5.78;4.15;;;;;;;;;;4981087;28;20205;-57
2022/09/15 11:34:00;;;;;;;5.68;4.20;;;;;;;;;;4968977;28;20315;-52
2022/09/15 11:36:36;;;;;;;9.48;4.97;;;;;;;;;;4979935;28;20622;-52
2022/09/15 11:39:19;;;;;;;5.35;4.20;;;;;;;;;;4968431;28;20231;-57
2022/09/15 11:41:55;;;;;;;4.80;4.03;;;;;;;;;;4964119;28;20236;-54
2022/09/15 11:44:24;;;;;;;5.38;4.47;;;;;;;;;;4947482;28;20197;-52
2022/09/15 11:47:13;;;;;;;7.03;4.50;;;;;;;;;;4980642;28;20303;-55
2022/09/15 11:50:06;;;;;;;5.53;4.40;;;;;;;;;;4958016;28;20479;-56
2022/09/15 11:52:55;;;;;;;7.00;4.30;;;;;;;;;;4974126;28;20203;-54
2022/09/15 11:55:30;;;;;;;4.80;3.92;;;;;;;;;;4978862;28;20229;-56
2022/09/15 11:58:12;;;;;;;5.45;3.95;;;;;;;;;;4956566;28;20307;-55
2022/09/15 12:00:57;;;;;;;6.13;4.47;;;;;;;;;;4951636;28;20280;-56
2022/09/15 12:03:41;;;;;;;4.40;4.00;;;;;;;;;;4964483;28;20227;-54
2022/09/15 12:06:12;;;;;;;4.90;4.03;;;;;;;;;;4969581;28;20203;-55
2022/09/15 12:08:59;;;;;;;6.28;4.15;;;;;;;;;;4981588;28;20748;-55
2022/09/15 12:11:29;;;;;;;4.80;3.92;;;;;;;;;;4959468;28;20193;-55
2022/09/15 12:13:56;;;;;;;4.93;3.78;;;;;;;;;;4961651;28;20264;-55
2022/09/15 12:16:23;;;;;;;5.60;3.50;;;;;;;;;;4964529;28;20201;-55
2022/09/15 12:19:05;;;;;;;4.65;4.00;;;;;;;;;;4979967;28;20209;-56
2022/09/15 12:21:47;;;;;;;7.72;3.90;;;;;;;;;;4975487;28;20288;-55
2022/09/15 12:24:21;;;;;;;4.53;3.72;;;;;;;;;;4956094;28;20292;-53
2022/09/15 12:26:48;;;;;;;4.10;3.58;;;;;;;;;;4975574;28;20218;-54
2022/09/15 12:29:20;;;;;;;5.05;3.45;;;;;;;;;;4963906;28;20661;-56
2022/09/15 12:31:47;;;;;;;5.28;3.78;;;;;;;;;;4984037;28;20220;-57
2022/09/15 12:34:29;;;;;;;7.30;3.88;;;;;;;;;;4988899;28;20217;-52
2022/09/15 12:37:13;;;;;;;4.82;3.60;;;;;;;;;;4983247;28;20717;-55
2022/09/15 12:39:41;;;;;;;3.90;3.30;;;;;;;;;;4978403;28;20221;-56
2022/09/15 12:42:26;;;;;;;4.03;3.28;;;;;;;;;;4966822;28;20244;-56
2022/09/15 12:44:55;;;;;;;4.22;3.50;;;;;;;;;;4962237;28;20197;-55
2022/09/15 12:47:56;;;;;;;6.07;3.58;;;;;;;;;;4982881;28;20221;-55
2022/09/15 12:50:35;;;;;;;4.20;3.33;;;;;;;;;;4948677;28;20577;-55
2022/09/15 12:53:13;;;;;;;4.30;3.38;;;;;;;;;;4982031;28;20198;-54
2022/09/15 12:55:49;;;;;;;4.65;3.28;;;;;;;;;;4987868;28;20209;-55
2022/09/15 12:58:18;;;;;;;4.30;3.55;;;;;;;;;;4982815;28;20299;-55
2022/09/15 13:00:45;;;;;;;4.20;3.58;;;;;;;;;;4966001;28;20278;-54
2022/09/15 13:03:37;;;;;;;3.88;3.30;;;;;;;;;;4973543;28;20201;-53
2022/09/15 13:06:13;;;;;;;4.15;3.28;;;;;;;;;;4975882;28;20323;-55
2022/09/15 13:09:06;;;;;;;4.47;3.13;;;;;;;;;;4962953;28;20284;-53
2022/09/15 13:11:41;;;;;;;3.53;3.13;;;;;;;;;;4975050;28;20668;-55
2022/09/15 13:14:34;;;;;;;4.93;3.65;;;;;;;;;;4985506;28;20200;-56
2022/09/15 13:17:15;;;;;;;5.63;3.42;;;;;;;;;;4967300;28;20343;-56
2022/09/15 13:19:46;;;;;;;5.10;3.33;;;;;;;;;;4982742;28;20304;-58
2022/09/15 13:22:26;;;;;;;5.47;3.72;;;;;;;;;;4964171;28;20199;-52
2022/09/15 13:25:14;;;;;;;4.68;3.65;;;;;;;;;;4970276;28;20284;-51
2022/09/15 13:27:53;;;;;;;5.35;3.80;;;;;;;;;;4964443;28;20650;-58
2022/09/15 13:30:23;;;;;;;4.80;3.45;;;;;;;;;;4987536;28;20204;-58
2022/09/15 13:32:59;;;;;;;5.65;3.40;;;;;;;;;;4981157;28;20729;-52
2022/09/15 13:35:51;;;;;;;5.85;3.83;;;;;;;;;;4974242;28;20197;-56
2022/09/15 13:38:38;;;;;;;5.43;3.88;;;;;;;;;;4976937;28;20248;-58
2022/09/15 13:41:42;;;;;;;5.85;3.92;;;;;;;;;;4986566;28;20795;-57
2022/09/15 13:44:17;;;;;;;4.65;3.70;;;;;;;;;;4986415;28;20232;-56
2022/09/15 13:46:58;;;;;;;5.28;3.90;;;;;;;;;;4975729;28;20300;-56
2022/09/15 13:49:43;;;;;;;5.35;3.50;;;;;;;;;;4978798;28;20232;-56
2022/09/15 13:52:22;;;;;;;4.78;3.50;;;;;;;;;;4983799;28;20736;-55
2022/09/15 13:55:13;;;;;;;6.20;3.80;;;;;;;;;;4979388;28;20729;-57
2022/09/15 13:57:42;;;;;;;6.55;3.63;;;;;;;;;;4983755;28;20217;-55
2022/09/15 14:00:53;;;;;;;5.60;3.50;;;;;;;;;;4970615;28;20220;-55
2022/09/15 14:03:27;;;;;;;4.20;3.20;;;;;;;;;;4953975;28;20197;-54
2022/09/15 14:05:54;;;;;;;4.43;3.80;;;;;;;;;;4958187;28;20292;-55
2022/09/15 14:08:31;;;;;;;3.97;3.38;;;;;;;;;;4980036;28;20279;-50
2022/09/15 14:11:02;;;;;;;4.57;3.25;;;;;;;;;;4979369;28;20385;-52
2022/09/15 14:13:29;;;;;;;6.15;3.40;;;;;;;;;;4974503;28;20276;-55
2022/09/15 14:16:01;;;;;;;4.63;3.20;;;;;;;;;;4979438;28;20292;-53
2022/09/15 14:18:28;;;;;;;3.58;3.17;;;;;;;;;;4981992;28;20898;-54
2022/09/15 14:21:03;;;;;;;5.35;3.45;;;;;;;;;;4984819;28;20252;-51
2022/09/15 14:23:30;;;;;;;3.42;3.13;;;;;;;;;;4984695;28;20288;-52
2022/09/15 14:25:59;;;;;;;4.20;3.15;;;;;;;;;;4980271;28;20709;-54
2022/09/15 14:28:31;;;;;;;5.63;3.20;;;;;;;;;;4965631;28;20704;-51
2022/09/15 14:30:58;;;;;;;5.00;3.08;;;;;;;;;;4976342;28;20301;-54
2022/09/15 14:33:32;;;;;;;7.95;3.03;;;;;;;;;;4969287;28;20203;-53
2022/09/15 14:36:16;;;;;;;4.55;3.00;;;;;;;;;;4948618;28;20201;-53
2022/09/15 14:38:42;;;;;;;3.33;2.58;;;;;;;;;;4963607;28;20467;-52
2022/09/15 14:41:17;;;;;;;4.70;3.22;;;;;;;;;;4960240;28;20304;-53
2022/09/15 14:43:43;;;;;;;4.00;2.80;;;;;;;;;;4963220;28;20235;-53
2022/09/15 14:46:11;;;;;;;4.93;2.80;;;;;;;;;;4980699;28;20207;-53
2022/09/15 14:48:38;;;;;;;3.42;2.70;;;;;;;;;;4978864;28;20248;-53
2022/09/15 14:51:23;;;;;;;4.97;2.90;;;;;;;;;;4982128;28;20394;-51
2022/09/15 14:53:51;;;;;;;3.60;2.60;;;;;;;;;;4983473;28;20371;-56
2022/09/15 14:56:32;;;;;;;3.67;2.58;;;;;;;;;;4980865;28;20284;-55
2022/09/15 14:59:02;;;;;;;2.90;2.15;;;;;;;;;;4973439;28;20212;-53
2022/09/15 15:01:38;;;;;;;2.80;2.33;;;;;;;;;;4958905;28;20267;-54
2022/09/15 15:04:08;;;;;;;4.95;2.40;;;;;;;;;;4977919;28;20216;-52
2022/09/15 15:06:49;;;;;;;3.30;2.17;;;;;;;;;;4978560;28;20311;-54
2022/09/15 15:09:33;;;;;;;4.05;2.10;;;;;;;;;;4962078;28;20299;-54
2022/09/15 15:12:03;;;;;;;2.17;1.92;;;;;;;;;;4981814;28;20244;-51
2022/09/15 15:14:30;;;;;;;3.05;1.92;;;;;;;;;;4969350;28;20634;-56
2022/09/15 15:16:59;;;;;;;3.35;1.98;;;;;;;;;;4985292;28;20339;-54
2022/09/15 15:20:04;;;;;;;3.65;1.95;;;;;;;;;;4980649;28;20342;-54
2022/09/15 15:22:31;;;;;;;5.03;2.03;;;;;;;;;;4954636;28;20728;-55